Meteo Giornale » Osservazioni meteo Stati Uniti (USA) » Porterville
ore: 15:56 - Osservazioni Meteo Porterville
Lat. 36° 2' N Lon. 119° 4' W Alt. 135 metri s.l.m.
34 °C
Sereno
Temp. 24 Ore
16 °C
35 °C
Ovest
11.1 Km/h
Dew point 9 °C
Umidità 21 %
Visibilità 10 Km
Il sole sorge alle ore 06:27
Il sole tramonta alle ore 19:25
| Data e Ora | Cielo e Fenomeni | T °C | DP °C | Um. % | Pres. hPa | Vis. km | Vento km/h | |
|---|---|---|---|---|---|---|---|---|
| Oggi h: 15:56 | Sereno | 34 | 9 | 21 | 1010 | 10 | O 11.1 | |
| Oggi h: 13:56 | Sereno | 33 | 10 | 24 | 1011 | 10 | O/NO 16.7 | |
| Oggi h: 12:56 | Sereno | 31 | 11 | 29 | 1011 | 10 | O/NO 11.1 | |
| Oggi h: 11:56 | Sereno | 30 | 11 | 30 | 1012 | 10 | O 9.3 | |
| Oggi h: 10:56 | Sereno | 27 | 12 | 39 | 1012 | 10 | SO 9.3 | |
| Oggi h: 09:56 | Sereno | 25 | 10 | 38 | 1012 | 10 | O/SO 11.1 | |
| Oggi h: 08:56 | Sereno | 23 | 7 | 35 | 1012 | 10 | S/SO 11.1 | |
| Oggi h: 07:56 | Sereno | 21 | 7 | 40 | 1012 | 10 | S/SE 7.4 | |
| Oggi h: 06:56 | Sereno | 16 | 7 | 55 | 1012 | 10 | S 7.4 | |
| Oggi h: 05:56 | Sereno | 16 | 7 | 55 | 1011 | 10 | E/SE 13 | |
| Oggi h: 04:56 | Sereno | 17 | 6 | 48 | 1011 | 10 | S 11.1 | |
| Oggi h: 03:56 | Sereno | 17 | 6 | 48 | 1011 | 10 | S 9.3 | |
| Oggi h: 02:56 | Sereno | 17 | 7 | 51 | 1011 | 10 | S/SE 9.3 | |
| Oggi h: 01:56 | Sereno | 18 | 7 | 48 | 1010 | 10 | S/SO 13 | |
| Oggi h: 00:56 | Sereno | 19 | 7 | 45 | 1010 | 10 | S 11.1 | |
| Ieri h: 23:56 | Sereno | 21 | 9 | 46 | 1010 | 10 | S/SE 11.1 | |
| Ieri h: 22:56 | Sereno | 21 | 12 | 56 | 1010 | 10 | S 7.4 | |
| Ieri h: 21:56 | Sereno | 24 | 14 | 53 | 1010 | 10 | N 5.5 | |
| Ieri h: 20:56 | Sereno | 27 | 13 | 42 | 1009 | 10 | N 0 | |
| Ieri h: 19:56 | Sereno | 29 | 12 | 35 | 1009 | 10 | N/NO 9.3 | |
| Ieri h: 18:56 | Sereno | 33 | 12 | 27 | 1009 | 10 | NO 7.4 | |
| Ieri h: 17:56 | Sereno | 35 | 9 | 20 | 1009 | 10 | N/NO 13 | |
| Ieri h: 16:56 | Sereno | 34 | 9 | 21 | 1009 | 10 | N 14.8 | |



